Airport View

Enter AWOS ICAO identifier for current METAR.

ex. KFNL

KMDS 262225Z AUTO 31008KT 10SM BKN008 M06/M06 A3022 RMK AO2

26 Feb 2020 22:30

Frequency: 118.35

Phone: 6054279380

Other Area AWOS: KBKX - KFSD - KPQN - KMHE

TAF KRWF 261724Z 2618/2718 32007KT P6SM FEW040 SCT250 FM262100 30006KT P6SM FEW025 OVC040 FM270000 30004KT P6SM BKN025 OVC040